In Rescue
 
Open Full Screen Window  High Contrast Mode
August 12, 2020 3:58 AM EDT
Present Weather: Fog
Weather Information
Wind Direction
  ---
Wind Speed
  00 kt (0 mph)
Wind Gust
  00 kt (0 mph)
Altimeter
30.06 in
Visibility
1/4 SM
Temperature
17° C
63° F
Dewpoint
17° C
63° F
Humidity
100%
1hr Rain Fall
00.00 in.
24hr Rain Fall
00.10 in.
Sky Condition
Overcast @ 4,300 ft
IFR

METAR KDLZ 120758Z AUTO 00000KT 1/4SM FG OVC043 17/17 A3006 RMK AO2

FAA Disclaimer: The data displayed is for advisory purposes only and is not to be used for flight planning or operations.